Time;durP1;ratioP1;P1;durP2;ratioP2;P2;SDS_P1;SDS_P2;PMS_P1;PMS_P2;Temp;Humidity;BMP_temperature;BMP_pressure;BME280_temperature;BME280_humidity;BME280_pressure;Samples;Min_cycle;Max_cycle;Signal;HPM_P1;HPM_P2
2022/06/11 00:01:02;;;;;;;;;;;;;;;15.77;100.00;98542.95;1777045;80;20187;-87
2022/06/11 00:03:28;;;;;;;;;;;;;;;15.78;100.00;98544.01;1781769;80;20184;-84
2022/06/11 00:05:53;;;;;;;;;;;;;;;15.77;100.00;98544.31;1778891;80;20723;-84
2022/06/11 00:08:19;;;;;;;;;;;;;;;15.73;100.00;98552.87;1779356;80;21066;-87
2022/06/11 00:10:45;;;;;;;;;;;;;;;15.70;100.00;98550.16;1775410;80;20170;-87
2022/06/11 00:13:11;;;;;;;;;;;;;;;15.70;100.00;98547.43;1781739;79;20265;-83
2022/06/11 00:15:37;;;;;;;;;;;;;;;15.68;100.00;98551.58;1779301;80;20186;-84
2022/06/11 00:18:03;;;;;;;;;;;;;;;15.65;100.00;98550.27;1739991;81;20232;-87
2022/06/11 00:20:29;;;;;;;;;;;;;;;15.63;100.00;98548.38;1775967;80;21874;-84
2022/06/11 00:22:54;;;;;;;;;;;;;;;15.59;100.00;98547.33;1773273;80;20222;-87
2022/06/11 00:25:20;;;;;;;;;;;;;;;15.57;100.00;98544.09;1774466;80;20224;-84
2022/06/11 00:27:47;;;;;;;;;;;;;;;15.54;100.00;98544.67;1781991;80;20469;-84
2022/06/11 00:30:13;;;;;;;;;;;;;;;15.53;100.00;98541.13;1775855;80;20179;-84
2022/06/11 00:32:39;;;;;;;;;;;;;;;15.51;100.00;98543.36;1744827;80;21132;-84
2022/06/11 00:35:05;;;;;;;;;;;;;;;15.49;100.00;98540.68;1764911;80;20186;-87
2022/06/11 00:37:31;;;;;;;;;;;;;;;15.47;100.00;98534.72;1781755;79;20168;-83
2022/06/11 00:39:57;;;;;;;;;;;;;;;15.45;100.00;98543.73;1780985;80;20187;-83
2022/06/11 00:42:26;;;;;;;;;;;;;;;15.41;100.00;98543.53;1781879;80;20190;-87
2022/06/11 00:45:19;;;;;;;;;;;;;;;15.37;100.00;98545.23;1781344;80;21072;-87
2022/06/11 00:47:47;;;;;;;;;;;;;;;15.27;100.00;98552.22;1665097;84;20184;-86
2022/06/11 00:50:29;;;;;;;;;;;;;;;15.22;100.00;98546.86;1626580;86;20199;-84
2022/06/11 00:52:55;;;;;;;;;;;;;;;15.19;100.00;98550.16;1718232;81;20216;-84
2022/06/11 00:55:25;;;;;;;;;;;;;;;15.16;100.00;98548.04;1772391;80;20207;-88
2022/06/11 00:57:54;;;;;;;;;;;;;;;15.12;100.00;98546.99;1781163;79;21776;-84
2022/06/11 01:00:32;;;;;;;;;;;;;;;15.08;100.00;98551.44;1781862;80;20180;-87
2022/06/11 01:02:57;;;;;;;;;;;;;;;15.04;100.00;98559.42;1781155;79;20188;-84
2022/06/11 01:05:26;;;;;;;;;;;;;;;14.99;100.00;98548.56;1750032;80;21536;-84
2022/06/11 01:08:11;;;;;;;;;;;;;;;14.98;100.00;98550.23;1781141;79;20191;-87
2022/06/11 01:11:14;;;;;;;;;;;;;;;14.96;100.00;98546.44;1781970;80;21210;-84
2022/06/11 01:14:07;;;;;;;;;;;;;;;14.95;100.00;98544.78;1781041;80;20156;-84
2022/06/11 01:16:39;;;;;;;;;;;;;;;14.93;100.00;98542.36;1781932;79;20169;-88
2022/06/11 01:19:28;;;;;;;;;;;;;;;14.92;100.00;98544.83;1780791;80;20188;-84
2022/06/11 01:22:07;;;;;;;;;;;;;;;14.94;100.00;98543.98;1762870;80;20199;-84
2022/06/11 01:24:55;;;;;;;;;;;;;;;14.97;100.00;98544.52;1773211;80;21058;-83
2022/06/11 01:27:47;;;;;;;;;;;;;;;14.98;100.00;98544.77;1772196;80;20164;-88
2022/06/11 01:30:25;;;;;;;;;;;;;;;14.98;100.00;98544.22;1781850;80;20202;-88
2022/06/11 01:33:03;;;;;;;;;;;;;;;14.97;100.00;98545.33;1781785;80;20156;-87
2022/06/11 01:35:39;;;;;;;;;;;;;;;14.97;100.00;98542.59;1779590;80;20161;-84
2022/06/11 01:38:08;;;;;;;;;;;;;;;14.93;100.00;98536.90;1783247;79;21250;-88
2022/06/11 01:40:52;;;;;;;;;;;;;;;14.96;100.00;98532.80;1760189;80;20444;-84
2022/06/11 01:43:25;;;;;;;;;;;;;;;14.97;100.00;98533.60;1781371;79;20155;-88
2022/06/11 01:45:51;;;;;;;;;;;;;;;15.00;100.00;98535.73;1781666;80;20191;-87
2022/06/11 01:48:20;;;;;;;;;;;;;;;15.00;100.00;98545.28;1781715;79;20195;-84
2022/06/11 01:51:25;;;;;;;;;;;;;;;14.98;100.00;98544.22;1749807;80;21872;-86
2022/06/11 01:54:06;;;;;;;;;;;;;;;14.95;100.00;98546.99;1780159;80;20431;-84
2022/06/11 01:56:41;;;;;;;;;;;;;;;14.98;100.00;98547.50;1781952;80;20199;-85
2022/06/11 01:59:26;;;;;;;;;;;;;;;15.00;100.00;98550.73;1780998;80;20629;-87
2022/06/11 02:02:15;;;;;;;;;;;;;;;15.02;100.00;98551.25;1781622;79;20463;-85
2022/06/11 02:04:53;;;;;;;;;;;;;;;15.00;100.00;98547.45;1760603;80;21095;-84
2022/06/11 02:07:29;;;;;;;;;;;;;;;15.03;100.00;98549.58;1781631;80;20180;-87
2022/06/11 02:10:03;;;;;;;;;;;;;;;15.02;100.00;98552.05;1781942;80;20612;-84
2022/06/11 02:12:36;;;;;;;;;;;;;;;15.03;100.00;98553.67;1781066;79;20212;-84
2022/06/11 02:15:09;;;;;;;;;;;;;;;15.01;100.00;98556.45;1778394;80;20467;-83
2022/06/11 02:17:36;;;;;;;;;;;;;;;14.99;100.00;98556.75;1781160;79;20990;-85
2022/06/11 02:20:08;;;;;;;;;;;;;;;14.97;100.00;98552.15;1781210;80;20459;-86
2022/06/11 02:22:43;;;;;;;;;;;;;;;14.94;100.00;98550.80;1781896;79;20294;-87
2022/06/11 02:25:21;;;;;;;;;;;;;;;14.93;100.00;98555.19;1773464;80;20187;-87
2022/06/11 02:27:47;;;;;;;;;;;;;;;14.91;100.00;98555.49;1780641;79;20175;-88
2022/06/11 02:30:16;;;;;;;;;;;;;;;14.87;100.00;98561.84;1781795;80;20968;-88
2022/06/11 02:32:42;;;;;;;;;;;;;;;14.88;100.00;98557.45;1744058;80;20193;-84
2022/06/11 02:35:10;;;;;;;;;;;;;;;14.91;100.00;98561.50;1767939;80;20222;-84
2022/06/11 02:37:39;;;;;;;;;;;;;;;14.89;100.00;98568.63;1781500;80;20421;-84
2022/06/11 02:40:15;;;;;;;;;;;;;;;14.89;100.00;98570.55;1781242;80;20582;-88
2022/06/11 02:42:41;;;;;;;;;;;;;;;14.91;100.00;98571.05;1781519;79;21113;-87
2022/06/11 02:45:10;;;;;;;;;;;;;;;14.92;100.00;98575.41;1773108;80;20168;-84
2022/06/11 02:47:35;;;;;;;;;;;;;;;14.95;100.00;98579.73;1780930;80;20199;-84
2022/06/11 02:50:01;;;;;;;;;;;;;;;14.99;100.00;98579.95;1775404;80;20198;-83
2022/06/11 02:52:27;;;;;;;;;;;;;;;15.03;100.00;98582.33;1748356;80;20197;-84
2022/06/11 02:54:53;;;;;;;;;;;;;;;15.05;100.00;98583.42;1756863;80;21145;-85
2022/06/11 02:57:22;;;;;;;;;;;;;;;15.08;100.00;98586.91;1781879;79;20182;-84
2022/06/11 02:59:48;;;;;;;;;;;;;;;15.10;100.00;98587.42;1774034;80;20192;-84
2022/06/11 03:02:14;;;;;;;;;;;;;;;15.11;100.00;98586.31;1781693;80;20391;-84
2022/06/11 03:04:40;;;;;;;;;;;;;;;15.11;100.00;98587.68;1770603;80;20226;-88
2022/06/11 03:07:08;;;;;;;;;;;;;;;15.13;100.00;98590.95;1766699;79;21219;-87
2022/06/11 03:09:34;;;;;;;;;;;;;;;15.09;100.00;98587.98;1778932;80;20192;-88
2022/06/11 03:12:00;;;;;;;;;;;;;;;15.07;100.00;98592.93;1780895;80;20160;-88
2022/06/11 03:14:25;;;;;;;;;;;;;;;15.07;100.00;98592.93;1774471;80;20268;-85
2022/06/11 03:16:51;;;;;;;;;;;;;;;15.08;100.00;98591.01;1740090;80;20174;-87
2022/06/11 03:19:20;;;;;;;;;;;;;;;15.06;100.00;98584.48;1755178;80;20988;-87
2022/06/11 03:21:46;;;;;;;;;;;;;;;15.06;100.00;98589.95;1761540;80;20160;-84
2022/06/11 03:24:12;;;;;;;;;;;;;;;15.04;100.00;98588.07;1775408;80;20156;-84
2022/06/11 03:26:38;;;;;;;;;;;;;;;15.05;100.00;98588.88;1762706;80;20146;-83
2022/06/11 03:29:04;;;;;;;;;;;;;;;15.02;100.00;98588.89;1747451;80;20286;-87
2022/06/11 03:31:30;;;;;;;;;;;;;;;15.02;100.00;98593.55;1782978;79;21715;-84
2022/06/11 03:33:55;;;;;;;;;;;;;;;15.04;100.00;98592.16;1781432;80;20261;-83
2022/06/11 03:36:21;;;;;;;;;;;;;;;15.08;100.00;98591.81;1780803;80;20210;-84
2022/06/11 03:38:47;;;;;;;;;;;;;;;15.11;100.00;98590.41;1783588;76;20642;-84
2022/06/11 03:41:13;;;;;;;;;;;;;;;15.11;100.00;98589.85;1782002;80;20215;-84
2022/06/11 03:43:39;;;;;;;;;;;;;;;15.14;100.00;98587.92;1780761;80;21095;-85
2022/06/11 03:46:04;;;;;;;;;;;;;;;15.20;100.00;98587.27;1755199;80;20183;-88
2022/06/11 03:48:30;;;;;;;;;;;;;;;15.23;100.00;98590.23;1781819;80;20261;-88
2022/06/11 03:50:57;;;;;;;;;;;;;;;15.26;100.00;98586.09;1779916;80;20443;-86
2022/06/11 03:53:23;;;;;;;;;;;;;;;15.29;100.00;98586.86;1781556;79;20171;-88
2022/06/11 03:55:49;;;;;;;;;;;;;;;15.32;100.00;98584.92;1776616;80;21807;-84
2022/06/11 03:58:15;;;;;;;;;;;;;;;15.36;100.00;98592.76;1739761;81;20190;-85
2022/06/11 04:03:25;;;;;;;;;;;;;;;15.41;100.00;98588.59;1781909;79;20191;-84
2022/06/11 04:05:52;;;;;;;;;;;;;;;15.47;100.00;98593.43;1750407;80;20237;-84
2022/06/11 04:08:18;;;;;;;;;;;;;;;15.45;100.00;98590.97;1739942;81;21147;-88
2022/06/11 04:10:43;;;;;;;;;;;;;;;15.44;100.00;98588.55;1774625;80;20202;-84
2022/06/11 04:13:10;;;;;;;;;;;;;;;15.41;100.00;98585.05;1739946;80;20220;-85
2022/06/11 04:15:36;;;;;;;;;;;;;;;15.42;100.00;98583.94;1781813;80;20152;-84
2022/06/11 04:18:02;;;;;;;;;;;;;;;15.44;100.00;98581.16;1781760;79;20198;-84
2022/06/11 04:20:28;;;;;;;;;;;;;;;15.53;100.00;98585.39;1757488;80;21058;-85
2022/06/11 04:22:54;;;;;;;;;;;;;;;15.51;100.00;98588.42;1781055;79;20754;-84
2022/06/11 04:25:21;;;;;;;;;;;;;;;15.53;100.00;98586.20;1772496;80;20199;-84
2022/06/11 04:27:47;;;;;;;;;;;;;;;15.57;100.00;98592.45;1779616;80;20208;-88
2022/06/11 04:30:13;;;;;;;;;;;;;;;15.58;100.00;98586.69;1780457;80;20226;-84
2022/06/11 04:32:40;;;;;;;;;;;;;;;15.58;100.00;98584.51;1781467;79;21169;-88
2022/06/11 04:35:06;;;;;;;;;;;;;;;15.61;100.00;98580.64;1775490;80;20223;-88
2022/06/11 04:37:32;;;;;;;;;;;;;;;15.64;100.00;98579.25;1746791;80;20205;-88
2022/06/11 04:39:59;;;;;;;;;;;;;;;15.75;100.00;98585.60;1761257;80;20204;-85
2022/06/11 04:42:25;;;;;;;;;;;;;;;15.78;100.00;98586.36;1779222;80;20212;-88
2022/06/11 04:44:51;;;;;;;;;;;;;;;15.86;100.00;98589.52;1779997;80;21143;-87
2022/06/11 04:47:20;;;;;;;;;;;;;;;15.89;100.00;98584.81;1781564;80;20451;-85
2022/06/11 04:49:46;;;;;;;;;;;;;;;15.97;100.00;98583.56;1776867;80;20167;-88
2022/06/11 04:52:12;;;;;;;;;;;;;;;16.09;100.00;98589.92;1781330;79;20160;-88
2022/06/11 04:54:38;;;;;;;;;;;;;;;16.24;100.00;98583.36;1773417;80;20175;-88
2022/06/11 04:57:04;;;;;;;;;;;;;;;16.39;100.00;98588.52;1781700;79;21859;-84
2022/06/11 04:59:32;;;;;;;;;;;;;;;16.28;100.00;98585.73;1781883;80;20164;-88
2022/06/11 05:01:58;;;;;;;;;;;;;;;16.27;100.00;98582.75;1781974;79;20165;-84
2022/06/11 05:04:23;;;;;;;;;;;;;;;16.20;100.00;98590.53;1756235;80;20496;-84
2022/06/11 05:06:49;;;;;;;;;;;;;;;16.14;100.00;98590.37;1760356;80;20265;-88
2022/06/11 05:09:16;;;;;;;;;;;;;;;16.18;100.00;98592.21;1746522;80;21769;-88
2022/06/11 05:11:42;;;;;;;;;;;;;;;16.24;100.00;98598.41;1760988;80;20163;-88
2022/06/11 05:14:07;;;;;;;;;;;;;;;16.33;100.00;98593.85;1750848;80;20709;-84
2022/06/11 05:16:34;;;;;;;;;;;;;;;16.28;100.00;98589.84;1780656;80;20164;-88
2022/06/11 05:19:00;;;;;;;;;;;;;;;16.17;100.00;98589.78;1780740;80;20175;-85
2022/06/11 05:21:25;;;;;;;;;;;;;;;16.20;100.00;98585.88;1782068;80;21085;-85
2022/06/11 05:23:51;;;;;;;;;;;;;;;16.27;100.00;98584.12;1781695;80;20260;-87
2022/06/11 05:26:20;;;;;;;;;;;;;;;16.40;100.00;98588.77;1781808;80;20567;-85
2022/06/11 05:28:46;;;;;;;;;;;;;;;16.51;100.00;98590.20;1781805;79;20470;-84
2022/06/11 05:31:12;;;;;;;;;;;;;;;16.63;100.00;98582.84;1769931;80;20302;-88
2022/06/11 05:33:38;;;;;;;;;;;;;;;16.76;100.00;98591.63;1739930;80;21094;-88
2022/06/11 05:36:04;;;;;;;;;;;;;;;16.85;100.00;98588.98;1777454;80;20195;-88
2022/06/11 05:38:30;;;;;;;;;;;;;;;17.06;100.00;98593.44;1781159;80;20195;-84
2022/06/11 05:40:56;;;;;;;;;;;;;;;17.26;100.00;98589.41;1781969;80;20216;-88
2022/06/11 05:43:22;;;;;;;;;;;;;;;17.53;100.00;98594.81;1781485;79;20767;-88
2022/06/11 05:45:54;;;;;;;;;;;;;;;17.77;100.00;98595.88;1781228;80;21164;-88
2022/06/11 05:48:21;;;;;;;;;;;;;;;17.94;100.00;98596.54;1781267;79;20168;-88
2022/06/11 05:50:49;;;;;;;;;;;;;;;18.20;100.00;98597.52;1752482;80;20184;-84
2022/06/11 05:53:16;;;;;;;;;;;;;;;18.28;98.41;98602.20;1757555;80;20157;-84
2022/06/11 05:55:42;;;;;;;;;;;;;;;18.33;93.82;98599.90;1757861;80;20168;-86
2022/06/11 05:58:10;;;;;;;;;;;;;;;18.58;94.58;98599.19;1781759;79;21116;-87
2022/06/11 06:00:35;;;;;;;;;;;;;;;18.82;94.14;98604.30;1779836;80;20950;-85
2022/06/11 06:03:01;;;;;;;;;;;;;;;19.08;96.05;98604.34;1740467;81;20206;-85
2022/06/11 06:05:28;;;;;;;;;;;;;;;18.96;89.76;98612.38;1772742;80;20171;-85
2022/06/11 06:07:54;;;;;;;;;;;;;;;19.16;92.34;98608.23;1781765;79;20175;-84
2022/06/11 06:10:20;;;;;;;;;;;;;;;19.32;90.61;98608.57;1774845;80;21181;-84
2022/06/11 06:12:46;;;;;;;;;;;;;;;19.54;91.06;98608.39;1781568;80;20215;-88
2022/06/11 06:15:15;;;;;;;;;;;;;;;19.76;88.61;98612.13;1781490;80;20730;-88
2022/06/11 06:17:40;;;;;;;;;;;;;;;19.76;80.59;98605.27;1781410;80;20177;-84
2022/06/11 06:20:09;;;;;;;;;;;;;;;20.11;84.58;98608.17;1781692;80;20155;-85
2022/06/11 06:22:35;;;;;;;;;;;;;;;20.20;82.61;98604.02;1781677;79;21048;-85
2022/06/11 06:25:01;;;;;;;;;;;;;;;20.18;77.08;98608.48;1764796;80;20189;-84
2022/06/11 06:27:26;;;;;;;;;;;;;;;20.39;76.56;98617.38;1773127;80;20229;-88
2022/06/11 06:29:52;;;;;;;;;;;;;;;20.54;80.81;98607.23;1775344;80;20475;-84
2022/06/11 06:32:18;;;;;;;;;;;;;;;20.71;82.19;98614.61;1780833;80;20294;-87
2022/06/11 06:34:44;;;;;;;;;;;;;;;20.55;79.21;98617.11;1781356;80;21072;-87
2022/06/11 06:37:11;;;;;;;;;;;;;;;20.42;79.40;98619.47;1781564;80;20485;-84
2022/06/11 06:39:37;;;;;;;;;;;;;;;20.54;79.55;98616.88;1771266;80;20151;-88
2022/06/11 06:42:04;;;;;;;;;;;;;;;20.78;79.21;98612.95;1739822;80;20188;-85
2022/06/11 06:44:29;;;;;;;;;;;;;;;20.99;78.25;98610.80;1756419;80;20533;-84
2022/06/11 06:46:55;;;;;;;;;;;;;;;21.05;80.47;98619.11;1781311;80;21165;-85
2022/06/11 06:49:21;;;;;;;;;;;;;;;21.12;78.01;98621.58;1781742;80;20738;-85
2022/06/11 06:51:46;;;;;;;;;;;;;;;20.93;76.47;98612.13;1781752;80;20348;-88
2022/06/11 06:54:12;;;;;;;;;;;;;;;20.86;69.33;98617.38;1781926;80;20576;-88
2022/06/11 06:56:38;;;;;;;;;;;;;;;21.08;74.85;98608.79;1782047;80;20183;-84
2022/06/11 06:59:04;;;;;;;;;;;;;;;21.08;65.63;98619.23;1778351;80;21190;-89
2022/06/11 07:01:30;;;;;;;;;;;;;;;21.33;70.07;98621.61;1773839;80;20178;-89
2022/06/11 07:03:56;;;;;;;;;;;;;;;21.60;69.39;98618.88;1779458;80;20300;-85
2022/06/11 07:06:22;;;;;;;;;;;;;;;21.69;67.25;98617.41;1781372;80;20235;-84
2022/06/11 07:08:50;;;;;;;;;;;;;;;21.85;69.28;98617.02;1781174;80;20188;-84
2022/06/11 07:11:16;;;;;;;;;;;;;;;21.85;73.06;98611.50;1760877;80;21095;-84
2022/06/11 07:13:41;;;;;;;;;;;;;;;22.00;71.47;98616.97;1781248;80;20244;-89
2022/06/11 07:16:07;;;;;;;;;;;;;;;21.81;64.18;98618.05;1780238;80;20250;-84
2022/06/11 07:18:42;;;;;;;;;;;;;;;21.37;62.10;98626.70;1781381;79;20187;-84
2022/06/11 07:21:10;;;;;;;;;;;;;;;21.32;61.96;98619.19;1771248;80;20481;-89
2022/06/11 07:23:40;;;;;;;;;;;;;;;21.23;59.86;98629.45;1739354;80;20929;-84
2022/06/11 07:26:15;;;;;;;;;;;;;;;21.39;60.81;98621.66;1781995;80;20152;-89
2022/06/11 07:28:46;;;;;;;;;;;;;;;21.62;62.32;98626.26;1774174;79;20193;-89
2022/06/11 07:31:11;;;;;;;;;;;;;;;21.63;56.28;98625.69;1778988;80;20489;-89
2022/06/11 07:33:37;;;;;;;;;;;;;;;21.93;60.66;98622.22;1774363;79;20254;-89
2022/06/11 07:36:04;;;;;;;;;;;;;;;22.27;62.67;98622.46;1749483;80;21223;-89
2022/06/11 07:38:29;;;;;;;;;;;;;;;22.74;62.46;98620.11;1755615;80;20182;-89
2022/06/11 07:40:55;;;;;;;;;;;;;;;22.65;53.74;98619.99;1772293;80;20283;-89
2022/06/11 07:43:21;;;;;;;;;;;;;;;22.90;55.56;98620.25;1740660;80;20170;-89
2022/06/11 07:45:48;;;;;;;;;;;;;;;23.29;54.96;98629.73;1778775;80;20541;-88
2022/06/11 07:48:14;;;;;;;;;;;;;;;23.30;51.42;98624.44;1781600;79;21134;-85
2022/06/11 07:50:44;;;;;;;;;;;;;;;23.26;54.08;98630.45;1754583;80;20265;-85
2022/06/11 07:53:10;;;;;;;;;;;;;;;22.68;49.62;98640.01;1781078;80;20172;-89
2022/06/11 07:55:37;;;;;;;;;;;;;;;22.50;51.21;98633.32;1781690;80;20730;-89
2022/06/11 07:58:04;;;;;;;;;;;;;;;22.99;54.11;98633.95;1781964;79;20209;-90
2022/06/11 08:00:35;;;;;;;;;;;;;;;23.72;53.30;98633.80;1773408;80;21076;-90
2022/06/11 08:03:01;;;;;;;;;;;;;;;24.65;54.25;98632.95;1781779;79;20187;-90
2022/06/11 08:05:27;;;;;;;;;;;;;;;24.82;46.47;98632.37;1781815;80;20694;-90
2022/06/11 08:07:53;;;;;;;;;;;;;;;25.45;50.92;98626.70;1781922;80;20202;-90
2022/06/11 08:10:20;;;;;;;;;;;;;;;25.76;48.34;98625.22;1781562;80;20255;-89
2022/06/11 08:12:46;;;;;;;;;;;;;;;25.76;44.95;98622.45;1781273;79;21303;-90
2022/06/11 08:15:12;;;;;;;;;;;;;;;25.37;41.79;98622.97;1769060;80;20218;-90
2022/06/11 08:17:38;;;;;;;;;;;;;;;26.05;45.85;98608.52;1763628;80;20206;-85
2022/06/11 08:20:04;;;;;;;;;;;;;;;26.29;42.54;98605.99;1762592;80;20594;-90
2022/06/11 08:22:30;;;;;;;;;;;;;;;25.55;41.13;98608.92;1767918;79;20216;-86
2022/06/11 08:24:56;;;;;;;;;;;;;;;24.69;44.83;98615.02;1781203;80;21884;-86
2022/06/11 08:27:22;;;;;;;;;;;;;;;24.74;45.05;98612.80;1781585;80;20601;-86
2022/06/11 08:29:48;;;;;;;;;;;;;;;25.84;45.57;98613.67;1774926;80;20285;-89
2022/06/11 08:32:14;;;;;;;;;;;;;;;25.68;43.94;98612.34;1779340;79;20146;-85
2022/06/11 08:34:41;;;;;;;;;;;;;;;25.59;42.94;98615.33;1775804;80;20164;-85
2022/06/11 08:37:08;;;;;;;;;;;;;;;24.92;43.63;98615.19;1778521;80;21060;-88
2022/06/11 08:39:34;;;;;;;;;;;;;;;25.51;44.34;98610.80;1777566;80;20208;-85
2022/06/11 08:42:00;;;;;;;;;;;;;;;26.19;43.87;98608.59;1780173;79;20215;-90
2022/06/11 08:44:26;;;;;;;;;;;;;;;27.10;44.75;98613.33;1779081;80;20171;-89
2022/06/11 08:46:52;;;;;;;;;;;;;;;26.34;41.34;98612.64;1777247;80;20142;-90
2022/06/11 08:49:32;;;;;;;;;;;;;;;27.44;42.25;98611.42;1765290;80;21904;-90
2022/06/11 08:52:04;;;;;;;;;;;;;;;27.88;41.81;98608.81;1775748;79;20144;-90
2022/06/11 08:54:33;;;;;;;;;;;;;;;28.38;39.90;98607.97;1772680;80;20203;-90
2022/06/11 08:57:08;;;;;;;;;;;;;;;29.62;40.38;98607.27;1777885;80;20425;-90
2022/06/11 08:59:55;;;;;;;;;;;;;;;28.79;37.92;98608.70;1780821;80;20577;-85
2022/06/11 09:02:31;;;;;;;;;;;;;;;27.02;40.27;98602.66;1780858;79;21332;-90
2022/06/11 09:05:29;;;;;;;;;;;;;;;26.20;42.89;98606.02;1789522;79;20316;-88
2022/06/11 09:08:01;;;;;;;;;;;;;;;25.02;44.37;98609.08;1767026;79;20190;-90
2022/06/11 09:10:54;;;;;;;;;;;;;;;24.27;46.67;98608.63;1770977;79;20176;-85
2022/06/11 09:13:26;;;;;;;;;;;;;;;25.24;44.17;98607.05;1761222;79;20453;-90
2022/06/11 09:15:58;;;;;;;;;;;;;;;26.89;42.71;98599.86;1781729;79;21175;-86
2022/06/11 09:18:28;;;;;;;;;;;;;;;27.61;42.43;98590.57;1780612;79;20222;-85
2022/06/11 09:21:15;;;;;;;;;;;;;;;28.56;37.50;98590.02;1775290;80;20214;-89
2022/06/11 09:23:50;;;;;;;;;;;;;;;28.78;40.98;98593.75;1719930;82;20205;-89
2022/06/11 09:26:22;;;;;;;;;;;;;;;29.60;37.27;98590.92;1763616;80;20167;-90
2022/06/11 09:29:07;;;;;;;;;;;;;;;29.81;36.32;98583.20;1741716;80;21127;-90
2022/06/11 09:31:58;;;;;;;;;;;;;;;30.15;35.33;98584.31;1763840;80;20211;-90
2022/06/11 09:34:39;;;;;;;;;;;;;;;30.82;34.76;98585.77;1781583;80;20187;-90
2022/06/11 09:37:27;;;;;;;;;;;;;;;31.43;32.23;98580.06;1780151;79;20136;-91
2022/06/11 09:39:57;;;;;;;;;;;;;;;31.95;32.33;98570.44;1747645;80;20193;-86
2022/06/11 09:42:51;;;;;;;;;;;;;;;32.05;34.17;98578.02;1739668;80;20909;-90
2022/06/11 09:45:27;;;;;;;;;;;;;;;30.89;29.58;98577.38;1756363;80;20195;-91
2022/06/11 09:48:17;;;;;;;;;;;;;;;31.85;30.30;98574.11;1735171;82;20166;-86
2022/06/11 09:50:53;;;;;;;;;;;;;;;31.38;31.53;98565.10;1741043;80;20196;-90
2022/06/11 09:53:32;;;;;;;;;;;;;;;32.22;31.34;98574.91;1778009;79;20184;-90
2022/06/11 09:56:10;;;;;;;;;;;;;;;31.42;29.04;98575.67;1779615;80;21786;-89
2022/06/11 09:58:52;;;;;;;;;;;;;;;32.19;28.98;98573.70;1780979;80;20191;-86
2022/06/11 10:01:21;;;;;;;;;;;;;;;31.53;27.75;98572.22;1781526;80;20482;-90
2022/06/11 10:03:55;;;;;;;;;;;;;;;32.20;27.61;98573.89;1752426;80;20563;-86
2022/06/11 10:06:27;;;;;;;;;;;;;;;32.46;28.67;98575.33;1781632;80;20175;-91
2022/06/11 10:08:58;;;;;;;;;;;;;;;31.52;28.50;98564.23;1751614;80;21076;-90
2022/06/11 10:11:27;;;;;;;;;;;;;;;29.99;29.88;98564.48;1766555;80;20206;-86
2022/06/11 10:14:29;;;;;;;;;;;;;;;30.70;29.01;98561.02;1772431;80;20210;-90
2022/06/11 10:17:21;;;;;;;;;;;;;;;32.60;31.02;98554.80;1758426;80;20186;-86
2022/06/11 10:20:12;;;;;;;;;;;;;;;33.22;29.97;98559.40;1778696;80;20566;-86
2022/06/11 10:23:02;;;;;;;;;;;;;;;32.24;27.67;98558.46;1781596;79;21317;-91
2022/06/11 10:25:59;;;;;;;;;;;;;;;32.15;28.42;98553.31;1757266;80;20243;-86
2022/06/11 10:28:37;;;;;;;;;;;;;;;33.44;26.60;98554.38;1769576;80;20133;-86
2022/06/11 10:31:12;;;;;;;;;;;;;;;34.33;25.69;98545.31;1761879;80;20338;-86
2022/06/11 10:33:53;;;;;;;;;;;;;;;33.11;25.69;98556.72;1768180;80;20152;-86
2022/06/11 10:36:22;;;;;;;;;;;;;;;33.80;27.34;98552.50;1783141;80;21067;-87
2022/06/11 10:39:07;;;;;;;;;;;;;;;34.46;26.78;98552.77;1781679;79;20175;-86
2022/06/11 10:41:44;;;;;;;;;;;;;;;35.33;26.77;98547.97;1781514;79;20553;-91
2022/06/11 10:44:35;;;;;;;;;;;;;;;34.67;24.27;98542.36;1777457;80;20219;-87
2022/06/11 10:47:20;;;;;;;;;;;;;;;35.01;25.30;98541.55;1781315;80;20196;-91
2022/06/11 10:49:52;;;;;;;;;;;;;;;34.45;23.85;98545.55;1768909;80;21083;-89
2022/06/11 10:52:43;;;;;;;;;;;;;;;34.16;24.73;98547.18;1771867;79;20168;-91
2022/06/11 10:55:13;;;;;;;;;;;;;;;33.89;23.55;98542.36;1781922;80;20170;-91
2022/06/11 10:57:38;;;;;;;;;;;;;;;35.05;23.38;98538.69;1781785;80;20216;-91
2022/06/11 11:00:32;;;;;;;;;;;;;;;35.91;25.73;98532.11;1763752;80;20295;-91
2022/06/11 11:03:01;;;;;;;;;;;;;;;34.68;21.29;98539.72;1792959;78;21024;-91
2022/06/11 11:05:29;;;;;;;;;;;;;;;34.95;23.34;98541.89;1782137;80;20930;-86
2022/06/11 11:07:58;;;;;;;;;;;;;;;33.88;22.49;98535.14;1781784;79;20169;-92
2022/06/11 11:10:37;;;;;;;;;;;;;;;34.25;22.50;98533.98;1782146;80;20168;-91
2022/06/11 11:13:06;;;;;;;;;;;;;;;34.24;22.53;98533.20;1781125;80;20934;-87
2022/06/11 11:15:40;;;;;;;;;;;;;;;35.24;23.60;98534.29;1774076;80;21122;-87
2022/06/11 11:18:18;;;;;;;;;;;;;;;35.18;23.57;98543.05;1781315;80;20199;-91
2022/06/11 11:20:45;;;;;;;;;;;;;;;35.03;23.60;98536.89;1770518;80;20175;-86
2022/06/11 11:23:17;;;;;;;;;;;;;;;34.18;21.97;98539.11;1773419;79;20199;-90
2022/06/11 11:25:54;;;;;;;;;;;;;;;35.09;22.30;98536.58;1752496;80;20186;-87
2022/06/11 11:28:26;;;;;;;;;;;;;;;35.07;22.37;98530.59;1756931;80;22028;-87
2022/06/11 11:31:01;;;;;;;;;;;;;;;34.63;22.26;98541.64;1781698;80;20161;-87
2022/06/11 11:33:30;;;;;;;;;;;;;;;34.28;22.70;98533.16;1782029;79;20167;-88
2022/06/11 11:36:20;;;;;;;;;;;;;;;33.91;22.34;98541.31;1779699;80;20231;-89
2022/06/11 11:39:02;;;;;;;;;;;;;;;32.79;22.69;98534.56;1776761;80;20490;-87
2022/06/11 11:41:31;;;;;;;;;;;;;;;33.89;21.86;98526.90;1776019;79;21142;-87
2022/06/11 11:43:58;;;;;;;;;;;;;;;33.22;22.92;98533.34;1780918;80;20529;-86
2022/06/11 11:46:25;;;;;;;;;;;;;;;34.44;23.31;98532.71;1781419;80;20179;-86
2022/06/11 11:48:54;;;;;;;;;;;;;;;32.82;24.31;98535.16;1776460;79;20175;-86
2022/06/11 11:51:32;;;;;;;;;;;;;;;33.87;23.12;98529.31;1755004;80;20208;-91
2022/06/11 11:54:01;;;;;;;;;;;;;;;34.07;22.36;98528.03;1771354;80;21072;-87
2022/06/11 11:56:38;;;;;;;;;;;;;;;33.97;22.80;98517.75;1775462;79;20558;-92
2022/06/11 11:59:20;;;;;;;;;;;;;;;34.63;21.44;98521.94;1779286;80;20180;-91
2022/06/11 12:01:47;;;;;;;;;;;;;;;34.96;22.61;98524.39;1782113;79;20163;-91
2022/06/11 12:04:38;;;;;;;;;;;;;;;35.35;21.96;98522.18;1782230;80;20211;-87
2022/06/11 12:07:06;;;;;;;;;;;;;;;34.41;22.60;98522.30;1774241;79;21328;-86
2022/06/11 12:09:41;;;;;;;;;;;;;;;34.98;22.87;98519.91;1778242;80;20184;-87
2022/06/11 12:12:11;;;;;;;;;;;;;;;35.24;22.60;98511.76;1780088;80;20281;-91
2022/06/11 12:14:39;;;;;;;;;;;;;;;35.03;20.69;98516.57;1771397;80;20524;-87
2022/06/11 12:17:27;;;;;;;;;;;;;;;36.53;20.72;98510.47;1766233;79;20188;-87
2022/06/11 12:19:56;;;;;;;;;;;;;;;37.27;20.93;98510.50;1772624;80;21120;-91
2022/06/11 12:22:32;;;;;;;;;;;;;;;35.86;22.02;98514.27;1780678;80;20314;-87
2022/06/11 12:24:58;;;;;;;;;;;;;;;36.70;20.36;98515.48;1759015;80;20991;-87
2022/06/11 12:27:27;;;;;;;;;;;;;;;36.74;20.99;98510.52;1739404;80;20475;-87
2022/06/11 12:29:56;;;;;;;;;;;;;;;35.71;20.88;98518.01;1763539;80;20160;-87
2022/06/11 12:32:23;;;;;;;;;;;;;;;36.44;21.77;98510.31;1781871;79;20775;-87
2022/06/11 12:34:51;;;;;;;;;;;;;;;36.21;20.59;98514.06;1773166;80;20129;-91
2022/06/11 12:37:36;;;;;;;;;;;;;;;36.24;21.91;98516.64;1780954;79;20200;-92
2022/06/11 12:40:16;;;;;;;;;;;;;;;36.30;20.52;98517.05;1760406;80;20188;-87
2022/06/11 12:43:16;;;;;;;;;;;;;;;35.96;21.85;98520.91;1742293;80;20313;-87
2022/06/11 12:45:58;;;;;;;;;;;;;;;35.27;22.32;98511.67;1775523;80;21051;-87
2022/06/11 12:48:30;;;;;;;;;;;;;;;35.86;22.39;98514.27;1781678;79;20180;-87
2022/06/11 12:51:03;;;;;;;;;;;;;;;35.82;22.21;98512.95;1781215;80;20160;-87
2022/06/11 12:53:48;;;;;;;;;;;;;;;36.18;21.98;98513.54;1781791;79;20161;-92
2022/06/11 12:56:32;;;;;;;;;;;;;;;36.84;20.93;98512.31;1782114;80;20164;-88
2022/06/11 12:59:19;;;;;;;;;;;;;;;35.64;21.47;98511.73;1780797;80;21090;-88
2022/06/11 13:02:05;;;;;;;;;;;;;;;36.48;22.58;98510.20;1778116;79;20248;-93
2022/06/11 13:04:59;;;;;;;;;;;;;;;36.51;19.87;98502.28;1776202;80;20231;-88
2022/06/11 13:07:38;;;;;;;;;;;;;;;35.19;20.68;98504.59;1763538;80;20529;-88